D/T METAR WX W/DIR W/SPE G/SPE TEMP DEWP
12/07/20 15:20 EGKA 121420Z 16008KT CAVOK 21/12 Q1028 SSE (160°) 9.2mph 21°C 12°C
12/07/20 14:50 EGKA 121350Z 19008KT CAVOK 20/11 Q1028 S (190°) 9.2mph 20°C 11°C
12/07/20 14:20 EGKA 121320Z 18008KT CAVOK 20/11 Q1028 S (180°) 9.2mph 20°C 11°C
12/07/20 13:50 EGKA 121250Z 19009KT CAVOK 20/12 Q1028 S (190°) 10.4mph 20°C 12°C
12/07/20 13:20 EGKA 121220Z 18009KT CAVOK 20/12 Q1029 S (180°) 10.4mph 20°C 12°C
12/07/20 12:20 EGKA 121120Z 18008KT 9999 FEW040 20/11 Q1029 S (180°) 9.2mph 20°C 11°C
12/07/20 11:50 EGKA 121050Z 17009KT 9999 FEW040 19/10 Q1029 S (170°) 10.4mph 19°C 10°C
12/07/20 11:20 EGKA 121020Z 17007KT 9999 FEW036 19/10 Q1029 S (170°) 8.1mph 19°C 10°C
12/07/20 10:50 EGKA 120950Z 16006KT 9999 FEW032 19/11 Q1029 SSE (160°) 6.9mph 19°C 11°C
12/07/20 10:20 EGKA 120920Z 15007KT 9999 FEW035 19/11 Q1029 SSE (150°) 8.1mph 19°C 11°C
12/07/20 09:50 EGKA 120850Z 15007KT 9999 FEW035 19/11 Q1029 SSE (150°) 8.1mph 19°C 11°C
11/07/20 17:50 EGKA 111650Z 22012KT CAVOK 18/11 Q1026 SW (220°) 13.8mph 18°C 11°C
11/07/20 17:20 EGKA 111620Z 35007KT CAVOK 22/05 Q1026 N (350°) 8.1mph 22°C 5°C
11/07/20 16:20 EGKA 111520Z 32007KT CAVOK 22/05 Q1026 NW (320°) 8.1mph 22°C 5°C
11/07/20 15:50 EGKA 111450Z 01008KT CAVOK 20/05 Q1026 N (10°) 9.2mph 20°C 5°C
11/07/20 15:20 EGKA 111420Z 35008KT 320V080 CAVOK 20/05 Q1026 N (350°) 9.2mph 20°C 5°C
11/07/20 14:50 EGKA 111350Z 31007KT CAVOK 20/05 Q1027 NW (310°) 8.1mph 20°C 5°C
11/07/20 14:20 EGKA 111320Z 30008KT CAVOK 21/07 Q1027 WNW (300°) 9.2mph 21°C 7°C
11/07/20 13:20 EGKA 111220Z 31008KT CAVOK 21/07 Q1027 NW (310°) 9.2mph 21°C 7°C
11/07/20 12:50 EGKA 111150Z 32010KT CAVOK 21/07 Q1027 NW (320°) 11.5mph 21°C 7°C
11/07/20 12:20 EGKA 111120Z 32010KT CAVOK 20/06 Q1027 NW (320°) 11.5mph 20°C 6°C
11/07/20 11:50 EGKA 111050Z 32011KT CAVOK 20/06 Q1027 NW (320°) 12.7mph 20°C 6°C
11/07/20 11:20 EGKA 111020Z 30011KT CAVOK 20/06 Q1026 WNW (300°) 12.7mph 20°C 6°C
11/07/20 10:50 EGKA 110950Z 33010KT 9999 FEW043 19/06 Q1026 NNW (330°) 11.5mph 19°C 6°C
11/07/20 10:20 EGKA 110920Z 31010KT 9999 FEW036 18/09 Q1026 NW (310°) 11.5mph 18°C 9°C
10/07/20 17:50 EGKA 101650Z 31010KT CAVOK 18/05 Q1020 NW (310°) 11.5mph 18°C 5°C
10/07/20 17:20 EGKA 101620Z 33011KT CAVOK 20/06 Q1019 NNW (330°) 12.7mph 20°C 6°C
10/07/20 16:50 EGKA 101550Z 30011KT CAVOK 20/05 Q1019 WNW (300°) 12.7mph 20°C 5°C
10/07/20 16:20 EGKA 101520Z 29012KT CAVOK 20/06 Q1019 WNW (290°) 13.8mph 20°C 6°C
10/07/20 15:50 EGKA 101450Z 30011KT CAVOK 20/07 Q1019 WNW (300°) 12.7mph 20°C 7°C
10/07/20 15:20 EGKA 101420Z 30012KT CAVOK 20/04 Q1019 WNW (300°) 13.8mph 20°C 4°C
10/07/20 14:50 EGKA 101350Z 30015KT CAVOK 20/05 Q1019 WNW (300°) 17.3mph 20°C 5°C
10/07/20 14:20 EGKA 101320Z 30011KT CAVOK 20/07 Q1019 WNW (300°) 12.7mph 20°C 7°C
10/07/20 13:50 EGKA 101250Z 32012KT 9999 SCT045 19/05 Q1019 NW (320°) 13.8mph 19°C 5°C
10/07/20 13:20 EGKA 101220Z 32011KT 9999 SCT045 20/07 Q1018 NW (320°) 12.7mph 20°C 7°C
10/07/20 12:50 EGKA 101150Z 31011KT 9999 SCT045 19/06 Q1018 NW (310°) 12.7mph 19°C 6°C
10/07/20 12:20 EGKA 101120Z 32010KT 9999 SCT040 19/07 Q1018 NW (320°) 11.5mph 19°C 7°C
10/07/20 11:50 EGKA 101050Z 32012KT 9999 SCT030 19/07 Q1018 NW (320°) 13.8mph 19°C 7°C
10/07/20 11:20 EGKA 101020Z 33011KT 9999 SCT028 19/08 Q1017 NNW (330°) 12.7mph 19°C 8°C
10/07/20 10:50 EGKA 100950Z 32010KT 9999 SCT025 18/08 Q1017 NW (320°) 11.5mph 18°C 8°C
10/07/20 10:20 EGKA 100920Z 31012KT 9999 SCT020 18/09 Q1017 NW (310°) 13.8mph 18°C 9°C
10/07/20 09:50 EGKA 100850Z 34012KT 9999 SCT020 17/10 Q1016 NNW (340°) 13.8mph 17°C 10°C
10/07/20 09:20 EGKA 100820Z 34010KT 9999 SCT022 18/12 Q1016 NNW (340°) 11.5mph 18°C 12°C
9/07/20 17:50 EGKA 091650Z 23014G24KT 9000 BKN009 18/16 Q1011 SW (230°) 16.1mph 27.6mph 18°C 16°C
9/07/20 17:20 EGKA 091620Z 23018KT 9000 BKN009 17/15 Q1012 SW (230°) 20.7mph 17°C 15°C
9/07/20 16:50 EGKA 091550Z 23014G25KT 9000 BKN009 17/15 Q1012 SW (230°) 16.1mph 28.8mph 17°C 15°C
9/07/20 16:20 EGKA 091520Z 23015G25KT 9999 BKN007 18/16 Q1012 SW (230°) 17.3mph 28.8mph 18°C 16°C
9/07/20 15:50 EGKA 091450Z 23016KT 9999 BKN007 17/16 Q1012 SW (230°) 18.4mph 17°C 16°C
9/07/20 15:20 EGKA 091420Z 23018KT 9999 BKN006 17/16 Q1013 SW (230°) 20.7mph 17°C 16°C
9/07/20 14:20 EGKA 091320Z 23016KT 9000 BKN006 17/16 Q1013 SW (230°) 18.4mph 17°C 16°C
9/07/20 13:50 EGKA 091250Z 22019KT 9999 BKN007 17/16 Q1013 SW (220°) 21.9mph 17°C 16°C
9/07/20 13:20 EGKA 091220Z 23017KT 9999 BKN006 17/15 Q1013 SW (230°) 19.6mph 17°C 15°C
9/07/20 12:50 EGKA 091150Z 23015G25KT 9999 BKN006 17/16 Q1013 SW (230°) 17.3mph 28.8mph 17°C 16°C
9/07/20 12:20 EGKA 091120Z 23015G25KT 9999 5000E BR OVC006 17/15 Q1013 BR SW (230°) 17.3mph 28.8mph 17°C 15°C
9/07/20 11:50 EGKA 091050Z 23015KT 5000 BR OVC006 17/16 Q1013 BR SW (230°) 17.3mph 17°C 16°C
9/07/20 11:20 EGKA 091020Z 23017KT 3500 -DZ BR OVC006 16/15 Q1013 -DZ BR SW (230°) 19.6mph 16°C 15°C
9/07/20 10:50 EGKA 090950Z 23016KT 3500 -DZ BR OVC006 16/15 Q1013 -DZ BR SW (230°) 18.4mph 16°C 15°C
9/07/20 10:20 EGKA 090920Z 23015KT 3000 -DZ BR OVC006 16/15 Q1013 -DZ BR SW (230°) 17.3mph 16°C 15°C
9/07/20 09:20 EGKA 090820Z 24014G24KT 4000 -DZ BKN007 17/15 Q1013 -DZ WSW (240°) 16.1mph 27.6mph 17°C 15°C
9/07/20 08:50 EGKA 090750Z 22015KT 9999 BKN007 17/15 Q1013 SW (220°) 17.3mph 17°C 15°C
8/07/20 17:50 EGKA 081650Z 24013KT 9999 FEW012 18/16 Q1015 WSW (240°) 15.0mph 18°C 16°C
8/07/20 17:20 EGKA 081620Z 24014KT 9999 FEW011 19/16 Q1015 WSW (240°) 16.1mph 19°C 16°C
8/07/20 16:50 EGKA 081550Z 24013KT 9999 FEW011 SCT022 19/16 Q1015 WSW (240°) 15.0mph 19°C 16°C
8/07/20 16:20 EGKA 081520Z 24012KT 9999 FEW011 SCT022 19/16 Q1015 WSW (240°) 13.8mph 19°C 16°C
8/07/20 15:50 EGKA 081450Z 24014KT 9999 FEW010 BKN019 18/16 Q1015 WSW (240°) 16.1mph 18°C 16°C
8/07/20 15:20 EGKA 081420Z 24011KT 9999 SCT008 BKN015 18/17 Q1016 WSW (240°) 12.7mph 18°C 17°C
8/07/20 14:50 EGKA 081350Z 24011KT 9999 FEW009 SCT012 18/16 Q1016 WSW (240°) 12.7mph 18°C 16°C
8/07/20 14:20 EGKA 081320Z 24011KT 9999 SCT009 18/16 Q1015 WSW (240°) 12.7mph 18°C 16°C
8/07/20 13:20 EGKA 081220Z 23012KT 9999 SCT009 18/17 Q1015 SW (230°) 13.8mph 18°C 17°C
8/07/20 12:50 EGKA 081150Z 23011KT 9999 SCT008 18/16 Q1015 SW (230°) 12.7mph 18°C 16°C
8/07/20 12:20 EGKA 081120Z 24009KT 9999 SCT008 17/16 Q1015 WSW (240°) 10.4mph 17°C 16°C
8/07/20 11:50 EGKA 081050Z 24009KT 9999 BKN011 17/16 Q1015 WSW (240°) 10.4mph 17°C 16°C
8/07/20 11:20 EGKA 081020Z 24011KT 9999 BKN011 17/16 Q1015 WSW (240°) 12.7mph 17°C 16°C
8/07/20 10:50 EGKA 080950Z 24011KT 9999 BKN008 17/16 Q1015 WSW (240°) 12.7mph 17°C 16°C
8/07/20 10:20 EGKA 080920Z 24009KT 9999 -RADZ BKN009 17/16 Q1015 -RA -DZ WSW (240°) 10.4mph 17°C 16°C
8/07/20 09:50 EGKA 080850Z 25009KT 9000 -RADZ BKN008 16/16 Q1015 -RA -DZ WSW (250°) 10.4mph 16°C 16°C
7/07/20 17:50 EGKA 071650Z 23017KT 9999 FEW024 18/11 Q1019 SW (230°) 19.6mph 18°C 11°C
7/07/20 17:20 EGKA 071620Z 22016KT 9999 FEW024 17/11 Q1019 SW (220°) 18.4mph 17°C 11°C
7/07/20 16:50 EGKA 071550Z 23017KT CAVOK 17/10 Q1019 SW (230°) 19.6mph 17°C 10°C
7/07/20 16:20 EGKA 071520Z 22017KT 9999 FEW028 18/11 Q1019 SW (220°) 19.6mph 18°C 11°C
7/07/20 15:50 EGKA 071450Z 23014KT 9999 FEW028 17/11 Q1020 SW (230°) 16.1mph 17°C 11°C
7/07/20 15:20 EGKA 071420Z 22017KT 9999 FEW028 17/09 Q1020 SW (220°) 19.6mph 17°C 9°C
7/07/20 14:50 EGKA 071350Z 23018KT 9999 FEW028 18/11 Q1020 SW (230°) 20.7mph 18°C 11°C
7/07/20 14:20 EGKA 071320Z 22017KT 9999 FEW028 18/12 Q1020 SW (220°) 19.6mph 18°C 12°C
7/07/20 13:50 EGKA 071250Z 22016KT 9999 FEW028 18/11 Q1021 SW (220°) 18.4mph 18°C 11°C
7/07/20 13:20 EGKA 071220Z 22015KT 9999 FEW024 18/12 Q1021 SW (220°) 17.3mph 18°C 12°C
7/07/20 12:50 EGKA 071150Z 20015KT 9999 FEW028 19/12 Q1021 SSW (200°) 17.3mph 19°C 12°C
7/07/20 12:20 EGKA 071120Z 20013KT 9999 FEW028 18/10 Q1021 SSW (200°) 15.0mph 18°C 10°C
7/07/20 11:50 EGKA 071050Z 20012KT 9999 FEW028 19/12 Q1021 SSW (200°) 13.8mph 19°C 12°C
7/07/20 11:20 EGKA 071020Z 20010KT 9999 FEW032 19/11 Q1021 SSW (200°) 11.5mph 19°C 11°C
7/07/20 10:50 EGKA 070950Z 18008KT 9999 FEW038 18/10 Q1021 S (180°) 9.2mph 18°C 10°C
7/07/20 09:50 EGKA 070850Z 19005KT 9999 FEW040 18/08 Q1022 S (190°) 5.8mph 18°C 8°C
6/07/20 17:50 EGKA 061650Z 31008KT 9999 FEW046 19/09 Q1022 NW (310°) 9.2mph 19°C 9°C
6/07/20 17:20 EGKA 061620Z 29011KT 9999 FEW046 19/09 Q1022 WNW (290°) 12.7mph 19°C 9°C
6/07/20 16:20 EGKA 061520Z 30008KT 9999 SCT047 19/09 Q1021 WNW (300°) 9.2mph 19°C 9°C
6/07/20 15:50 EGKA 061450Z 29011KT 9999 SCT047 19/09 Q1021 WNW (290°) 12.7mph 19°C 9°C